Capitol Logistics 7437

Operating for MZN



KBDL
Bradley International Airport
Windsor Locks, Connecticut
KONT
Ontario International Airport
Ontario, California

Activity Log

Date Flight Route Aircraft Duration
No Flights Yet

Route Details

Aircraft Information
Primary: Boeing 767-300BDSF
Backup: Boeing 757-200SF
Route Data
Distance: 2479nm
Duration: 5h 49m
Recm'd Route: CTR HNK J49 PSB AIR J110 TILMN J110 STL J110 SCAWT J110 KIRKE J110 RSK J110 LRAIN TOADD Q78 MARUE JCKIE2
Origin Wx: KBDL 141951Z 22008KT 10SM FEW050 BKN100 BKN210 21/04 A2989 RMK AO2 SLP122 T02060039
Dest. Wx: KONT 141953Z COR 23005KT 10SM FEW028 BKN036 BKN200 17/07 A2998 RMK AO2 SLP147 T01670067
Notes: